Time;durP1;ratioP1;P1;durP2;ratioP2;P2;SDS_P1;SDS_P2;PMS_P1;PMS_P2;Temp;Humidity;BMP_temperature;BMP_pressure;BME280_temperature;BME280_humidity;BME280_pressure;Samples;Min_cycle;Max_cycle;Signal;HPM_P1;HPM_P2
2020/12/03 00:01:19;;;;;;;32.53;13.10;;;-2.00;99.90;;;;;;4977608;28;20600;-78
2020/12/03 00:03:49;;;;;;;30.05;13.40;;;-2.00;99.90;;;;;;4991611;28;20412;-78
2020/12/03 00:06:22;;;;;;;29.60;12.98;;;-2.00;99.90;;;;;;4998372;28;20031;-78
2020/12/03 00:09:01;;;;;;;30.38;12.60;;;-2.00;99.90;;;;;;5014726;28;20038;-78
2020/12/03 00:11:31;;;;;;;28.10;12.15;;;-1.90;99.90;;;;;;4995466;28;20386;-78
2020/12/03 00:13:57;;;;;;;34.30;13.23;;;-1.90;99.90;;;;;;4977785;28;20041;-78
2020/12/03 00:16:27;;;;;;;35.63;13.57;;;-1.90;99.90;;;;;;4996128;28;20029;-78
2020/12/03 00:18:53;;;;;;;34.97;14.00;;;-1.90;99.90;;;;;;4993890;28;20256;-78
2020/12/03 00:21:30;;;;;;;30.52;12.68;;;-1.90;99.90;;;;;;4994343;28;20018;-78
2020/12/03 00:23:56;;;;;;;33.00;12.88;;;-1.90;99.90;;;;;;4996085;28;20134;-78
2020/12/03 00:26:26;;;;;;;32.97;13.38;;;-1.90;99.90;;;;;;4997110;28;20480;-78
2020/12/03 00:28:51;;;;;;;27.35;12.55;;;-1.90;99.90;;;;;;4997208;28;20026;-78
2020/12/03 00:31:17;;;;;;;33.38;12.55;;;-1.80;99.90;;;;;;4994066;28;20053;-78
2020/12/03 00:33:43;;;;;;;28.02;12.77;;;-1.80;99.90;;;;;;4983288;28;20476;-78
2020/12/03 00:36:08;;;;;;;30.13;12.05;;;-1.80;99.90;;;;;;5000263;28;20033;-78
2020/12/03 00:38:34;;;;;;;30.10;13.30;;;-1.80;99.90;;;;;;4995790;28;20042;-78
2020/12/03 00:41:00;;;;;;;29.58;13.23;;;-1.80;99.90;;;;;;5008752;28;20397;-78
2020/12/03 00:43:25;;;;;;;32.33;13.85;;;-1.80;99.90;;;;;;4996103;28;20664;-78
2020/12/03 00:45:51;;;;;;;29.73;12.50;;;-1.80;99.90;;;;;;4996772;28;20082;-78
2020/12/03 00:48:18;;;;;;;29.75;13.32;;;-1.70;99.90;;;;;;4995472;28;20036;-78
2020/12/03 00:50:46;;;;;;;28.92;12.57;;;-1.70;99.90;;;;;;4980577;28;20846;-79
2020/12/03 00:53:12;;;;;;;31.60;12.98;;;-1.70;99.90;;;;;;4988938;28;20069;-78
2020/12/03 00:55:39;;;;;;;30.00;13.48;;;-1.70;99.90;;;;;;4994834;28;20030;-78
2020/12/03 00:58:07;;;;;;;36.92;13.60;;;-1.70;99.90;;;;;;4979592;28;20038;-78
2020/12/03 01:00:33;;;;;;;32.25;13.10;;;-1.70;99.90;;;;;;4994767;28;20061;-79
2020/12/03 01:02:59;;;;;;;31.10;13.32;;;-1.70;99.90;;;;;;4993894;28;20579;-78
2020/12/03 01:05:25;;;;;;;28.02;11.80;;;-1.70;99.90;;;;;;4995788;28;20062;-78
2020/12/03 01:07:50;;;;;;;30.35;11.85;;;-1.70;99.90;;;;;;4995792;28;20034;-78
2020/12/03 01:10:21;;;;;;;29.73;12.50;;;-1.60;99.90;;;;;;4996022;28;20192;-77
2020/12/03 01:12:48;;;;;;;30.50;11.90;;;-1.70;99.90;;;;;;4994233;28;20385;-78
2020/12/03 01:15:13;;;;;;;29.95;11.80;;;-1.60;99.90;;;;;;4995643;28;20056;-78
2020/12/03 01:17:41;;;;;;;29.83;12.27;;;-1.70;99.90;;;;;;4984445;28;20102;-79
2020/12/03 01:20:10;;;;;;;30.55;13.10;;;-1.70;99.90;;;;;;4980948;28;20045;-78
2020/12/03 01:22:35;;;;;;;30.55;13.05;;;-1.70;99.90;;;;;;4991398;28;20433;-78
2020/12/03 01:25:03;;;;;;;29.67;12.40;;;-1.70;99.90;;;;;;4994933;28;20037;-78
2020/12/03 01:27:29;;;;;;;30.33;12.63;;;-1.70;99.90;;;;;;4996312;28;20030;-78
2020/12/03 01:29:54;;;;;;;33.17;12.98;;;-1.70;99.90;;;;;;4994314;28;20053;-78
2020/12/03 01:32:20;;;;;;;34.92;13.43;;;-1.70;99.90;;;;;;4991879;28;20035;-78
2020/12/03 01:34:46;;;;;;;37.90;12.93;;;-1.70;99.90;;;;;;5007608;28;20033;-78
2020/12/03 01:37:15;;;;;;;33.95;12.60;;;-1.70;99.90;;;;;;4995997;28;20034;-78
2020/12/03 01:39:41;;;;;;;28.13;13.02;;;-1.60;99.90;;;;;;4995887;28;20124;-79
2020/12/03 01:42:07;;;;;;;34.80;14.05;;;-1.60;99.90;;;;;;4993617;28;20030;-78
2020/12/03 01:44:58;;;;;;;30.77;11.75;;;-1.60;99.90;;;;;;4993465;28;20037;-78
2020/12/03 01:47:31;;;;;;;30.23;12.40;;;-1.60;99.90;;;;;;4995462;28;20070;-78
2020/12/03 01:49:58;;;;;;;27.85;12.82;;;-1.70;99.90;;;;;;4995369;28;20431;-78
2020/12/03 01:52:24;;;;;;;31.77;12.10;;;-1.70;99.90;;;;;;5004981;28;20117;-78
2020/12/03 01:54:51;;;;;;;32.13;13.05;;;-1.60;99.90;;;;;;5000436;28;20038;-78
2020/12/03 01:57:45;;;;;;;31.73;13.18;;;-1.60;99.90;;;;;;4995589;28;20030;-78
2020/12/03 02:00:14;;;;;;;31.40;12.65;;;-1.60;99.90;;;;;;4992038;28;20578;-78
2020/12/03 02:02:47;;;;;;;29.38;12.85;;;-1.60;99.90;;;;;;4989445;28;20125;-78
2020/12/03 02:05:23;;;;;;;31.77;13.35;;;-1.60;99.90;;;;;;4993017;28;20049;-78
2020/12/03 02:07:49;;;;;;;32.65;13.18;;;-1.60;99.90;;;;;;4992574;28;20117;-78
2020/12/03 02:10:19;;;;;;;31.38;13.23;;;-1.60;99.90;;;;;;4994282;28;20042;-78
2020/12/03 02:12:45;;;;;;;35.38;12.73;;;-1.60;99.90;;;;;;5005350;28;20049;-77
2020/12/03 02:15:12;;;;;;;31.80;12.27;;;-1.60;99.90;;;;;;4998969;28;20042;-78
2020/12/03 02:17:39;;;;;;;32.47;13.63;;;-1.60;99.90;;;;;;5012708;28;20428;-78
2020/12/03 02:20:08;;;;;;;31.45;13.10;;;-1.60;99.90;;;;;;4995292;28;20032;-77
2020/12/03 02:22:34;;;;;;;31.63;12.75;;;-1.70;99.90;;;;;;4991679;28;20109;-78
2020/12/03 02:25:00;;;;;;;32.35;13.70;;;-1.70;99.90;;;;;;4995301;28;20035;-78
2020/12/03 02:27:26;;;;;;;29.02;11.82;;;-1.70;99.90;;;;;;4993781;28;20043;-78
2020/12/03 02:29:52;;;;;;;30.10;13.85;;;-1.80;99.90;;;;;;4990955;28;20072;-78
2020/12/03 02:32:19;;;;;;;38.30;15.50;;;-1.70;99.90;;;;;;4990126;28;20440;-78
2020/12/03 02:34:45;;;;;;;31.38;12.65;;;-1.70;99.90;;;;;;4993601;28;20039;-78
2020/12/03 02:37:11;;;;;;;33.80;12.60;;;-1.70;99.90;;;;;;4994566;28;20396;-78
2020/12/03 02:39:38;;;;;;;28.58;12.10;;;-1.70;99.90;;;;;;4992722;28;20034;-78
2020/12/03 02:42:07;;;;;;;36.53;13.38;;;-1.80;99.90;;;;;;4988389;28;20039;-78
2020/12/03 02:44:34;;;;;;;33.83;12.57;;;-1.70;99.90;;;;;;4996957;28;20036;-78
2020/12/03 02:47:00;;;;;;;31.23;11.93;;;-1.70;99.90;;;;;;4992884;28;20045;-79
2020/12/03 02:49:27;;;;;;;33.55;13.60;;;-1.70;99.90;;;;;;4994283;28;20034;-78
2020/12/03 02:51:52;;;;;;;28.95;12.05;;;-1.70;99.90;;;;;;4990927;28;20038;-78
2020/12/03 02:54:18;;;;;;;31.90;12.90;;;-1.70;99.90;;;;;;4992986;28;20076;-78
2020/12/03 02:56:44;;;;;;;28.08;12.45;;;-1.60;99.90;;;;;;4994154;28;20065;-78
2020/12/03 02:59:11;;;;;;;31.15;11.68;;;-1.60;99.90;;;;;;4993746;28;20046;-78
2020/12/03 03:01:37;;;;;;;28.88;11.95;;;-1.70;99.90;;;;;;4991483;28;20117;-78
2020/12/03 03:04:04;;;;;;;37.97;13.10;;;-1.70;99.90;;;;;;4993433;28;20384;-78
2020/12/03 03:06:33;;;;;;;32.45;13.65;;;-1.70;99.90;;;;;;4994635;28;20034;-78
2020/12/03 03:08:59;;;;;;;34.05;13.43;;;-1.70;99.90;;;;;;4994498;28;20033;-78
2020/12/03 03:11:25;;;;;;;33.40;13.10;;;-1.70;99.90;;;;;;4995581;28;20084;-78
2020/12/03 03:13:51;;;;;;;31.73;13.10;;;-1.70;99.90;;;;;;4993384;28;20054;-78
2020/12/03 03:16:17;;;;;;;28.80;11.88;;;-1.70;99.90;;;;;;4993858;28;20458;-77
2020/12/03 03:18:42;;;;;;;30.85;11.45;;;-1.60;99.90;;;;;;4992042;28;20034;-78
2020/12/03 03:21:09;;;;;;;30.02;12.77;;;-1.60;99.90;;;;;;4992980;28;20436;-78
2020/12/03 03:23:34;;;;;;;31.58;11.50;;;-1.60;99.90;;;;;;4993018;28;20564;-78
2020/12/03 03:26:00;;;;;;;32.80;12.23;;;-1.60;99.90;;;;;;4993428;28;20031;-78
2020/12/03 03:28:26;;;;;;;28.10;12.23;;;-1.50;99.90;;;;;;4993187;28;20030;-78
2020/12/03 03:30:51;;;;;;;27.00;12.57;;;-1.50;99.90;;;;;;4990594;28;20034;-78
2020/12/03 03:33:17;;;;;;;35.55;12.93;;;-1.50;99.90;;;;;;4978269;28;20054;-78
2020/12/03 03:35:43;;;;;;;33.90;12.68;;;-1.50;99.90;;;;;;5007298;28;20065;-78
2020/12/03 03:38:09;;;;;;;30.63;12.07;;;-1.50;99.90;;;;;;4985741;28;20034;-78
2020/12/03 03:40:34;;;;;;;36.53;12.50;;;-1.50;99.90;;;;;;4989595;28;20030;-78
2020/12/03 03:43:00;;;;;;;30.25;11.52;;;-1.50;99.90;;;;;;4989562;28;20081;-78
2020/12/03 03:45:26;;;;;;;27.70;10.63;;;-1.60;99.90;;;;;;4991963;28;20038;-78
2020/12/03 03:47:51;;;;;;;29.30;12.10;;;-1.60;99.90;;;;;;4992047;28;20041;-78
2020/12/03 03:50:17;;;;;;;34.53;12.85;;;-1.70;99.90;;;;;;4989723;28;20030;-79
2020/12/03 03:52:46;;;;;;;27.08;11.65;;;-1.70;99.90;;;;;;4989254;28;20025;-78
2020/12/03 03:55:12;;;;;;;28.25;11.02;;;-1.70;99.90;;;;;;4991613;28;20105;-78
2020/12/03 03:57:37;;;;;;;30.75;12.35;;;-1.70;99.90;;;;;;4982540;28;20123;-78
2020/12/03 04:00:04;;;;;;;29.83;11.85;;;-1.70;99.90;;;;;;4972745;28;20038;-78
2020/12/03 04:02:30;;;;;;;27.95;11.55;;;-1.70;99.90;;;;;;4984368;28;20052;-78
2020/12/03 04:04:55;;;;;;;27.88;11.00;;;-1.70;99.90;;;;;;4990749;28;20030;-78
2020/12/03 04:07:21;;;;;;;26.63;10.73;;;-1.70;99.90;;;;;;4992051;28;20074;-78
2020/12/03 04:09:47;;;;;;;27.88;11.75;;;-1.50;99.90;;;;;;4990943;28;20058;-78
2020/12/03 04:12:13;;;;;;;25.90;10.63;;;-1.50;99.90;;;;;;4989668;28;20105;-78
2020/12/03 04:14:39;;;;;;;29.58;10.10;;;-1.40;99.90;;;;;;4991219;28;20078;-78
2020/12/03 04:17:05;;;;;;;31.95;12.38;;;-1.40;99.90;;;;;;4992138;28;20117;-78
2020/12/03 04:19:32;;;;;;;26.80;9.50;;;-1.40;99.90;;;;;;4992370;28;20038;-78
2020/12/03 04:21:58;;;;;;;28.58;10.25;;;-1.50;99.90;;;;;;4989558;28;20041;-78
2020/12/03 04:24:23;;;;;;;31.20;11.48;;;-1.50;99.90;;;;;;4992339;28;20035;-78
2020/12/03 04:26:49;;;;;;;24.75;11.10;;;-1.50;99.90;;;;;;4990681;28;20087;-78
2020/12/03 04:29:15;;;;;;;28.25;11.38;;;-1.50;99.90;;;;;;4989787;28;20029;-78
2020/12/03 04:31:42;;;;;;;29.85;11.65;;;-1.50;99.90;;;;;;4987512;28;20428;-78
2020/12/03 04:34:08;;;;;;;26.42;10.18;;;-1.50;99.90;;;;;;4991674;28;20106;-78
2020/12/03 04:36:34;;;;;;;26.70;9.82;;;-1.50;99.90;;;;;;4991092;28;20134;-78
2020/12/03 04:38:59;;;;;;;29.80;10.98;;;-1.50;99.90;;;;;;4989668;28;20129;-77
2020/12/03 04:41:25;;;;;;;26.58;10.40;;;-1.50;99.90;;;;;;4996764;28;20049;-78
2020/12/03 04:43:59;;;;;;;25.23;10.93;;;-1.60;99.90;;;;;;4992121;28;20031;-78
2020/12/03 04:46:37;;;;;;;34.80;13.13;;;-1.60;99.90;;;;;;4994352;28;20113;-78
2020/12/03 04:49:24;;;;;;;31.90;10.75;;;-1.60;99.90;;;;;;4993050;28;20026;-78
2020/12/03 04:52:12;;;;;;;31.17;11.52;;;-1.60;99.90;;;;;;4993430;28;20030;-78
2020/12/03 04:54:46;;;;;;;29.38;12.18;;;-1.60;99.90;;;;;;4991545;28;20026;-77
2020/12/03 04:57:34;;;;;;;27.30;11.18;;;-1.70;99.90;;;;;;4995967;28;20038;-78
2020/12/03 05:00:17;;;;;;;32.63;12.32;;;-1.70;99.90;;;;;;4995182;28;20023;-78
2020/12/03 05:03:21;;;;;;;31.15;11.90;;;-1.70;99.90;;;;;;4991339;28;20032;-78
2020/12/03 05:06:16;;;;;;;33.92;12.30;;;-1.70;99.90;;;;;;4976802;28;20101;-78
2020/12/03 05:08:57;;;;;;;31.17;13.50;;;-1.70;99.90;;;;;;4987911;28;20480;-78
2020/12/03 05:11:30;;;;;;;34.50;11.68;;;-1.70;99.90;;;;;;4992103;28;20448;-78
2020/12/03 05:14:09;;;;;;;31.70;11.55;;;-1.70;99.90;;;;;;4994559;28;20029;-78
2020/12/03 05:16:46;;;;;;;28.30;12.32;;;-1.60;99.90;;;;;;4995184;28;20026;-78
2020/12/03 05:19:21;;;;;;;35.35;13.07;;;-1.60;99.90;;;;;;4994034;28;20041;-78
2020/12/03 05:21:48;;;;;;;26.02;12.05;;;-1.60;99.90;;;;;;4992743;28;20068;-78
2020/12/03 05:24:14;;;;;;;29.00;12.32;;;-1.60;99.90;;;;;;4993420;28;20117;-78
2020/12/03 05:26:40;;;;;;;36.35;12.77;;;-1.60;99.90;;;;;;4995301;28;20069;-78
2020/12/03 05:29:08;;;;;;;31.20;12.23;;;-1.60;99.90;;;;;;4995574;28;20634;-78
2020/12/03 05:31:36;;;;;;;33.90;12.07;;;-1.70;99.90;;;;;;5014975;23;20051;-88
2020/12/03 05:34:11;;;;;;;29.45;11.10;;;-1.60;99.90;;;;;;5021794;28;20053;-89
2020/12/03 05:36:39;;;;;;;;;;;-1.70;99.90;;;;;;5033807;28;20080;-89
2020/12/03 05:39:09;;;;;;;31.10;12.55;;;-1.60;99.90;;;;;;5017207;28;19948;-89
2020/12/03 05:41:44;;;;;;;33.15;11.05;;;-1.60;99.90;;;;;;4995227;28;20708;-89
2020/12/03 05:44:28;;;;;;;30.52;11.32;;;-1.60;99.90;;;;;;5026036;28;20033;-87
2020/12/03 05:46:56;;;;;;;23.85;9.20;;;-1.60;99.90;;;;;;5030114;28;20041;-87
2020/12/03 05:49:25;;;;;;;31.55;10.52;;;-1.60;99.90;;;;;;4997122;28;20030;-87
2020/12/03 05:52:12;;;;;;;21.83;8.45;;;-1.70;99.90;;;;;;4995073;28;20022;-87
2020/12/03 05:54:37;;;;;;;20.38;8.13;;;-1.60;99.90;;;;;;5008261;28;20026;-87
2020/12/03 05:57:03;;;;;;;29.20;9.85;;;-1.70;99.90;;;;;;4997017;28;20124;-87
2020/12/03 05:59:29;;;;;;;24.73;10.70;;;-1.70;99.90;;;;;;4997251;28;20030;-87
2020/12/03 06:02:05;;;;;;;22.42;9.60;;;-1.70;99.90;;;;;;5012626;28;20116;-87
2020/12/03 06:04:54;;;;;;;26.48;8.82;;;-1.80;99.90;;;;;;5014100;28;20521;-87
2020/12/03 06:07:47;;;;;;;24.60;9.70;;;-1.80;99.90;;;;;;5013118;28;20057;-87
2020/12/03 06:10:21;;;;;;;25.35;9.85;;;-1.80;99.90;;;;;;4996734;28;20475;-87
2020/12/03 06:13:09;;;;;;;27.25;10.50;;;-1.70;99.90;;;;;;5000398;28;20029;-88
2020/12/03 06:15:49;;;;;;;22.25;8.68;;;-1.70;99.90;;;;;;5034584;28;20078;-87
2020/12/03 06:18:24;;;;;;;19.38;8.07;;;-1.70;99.90;;;;;;5032615;28;20033;-87
2020/12/03 06:23:28;;;;;;;;;;;-1.70;99.90;;;;;;4989864;28;20107;-80
2020/12/03 06:26:28;;;;;;;18.35;7.13;;;-1.70;99.90;;;;;;5008546;28;19906;-79
2020/12/03 06:29:13;;;;;;;24.85;8.70;;;-1.70;99.90;;;;;;4976250;28;20436;-79
2020/12/03 06:32:06;;;;;;;22.27;8.63;;;-1.70;99.90;;;;;;4992034;28;20026;-79
2020/12/03 06:34:32;;;;;;;19.73;7.25;;;-1.70;99.90;;;;;;4978435;28;20026;-79
2020/12/03 06:37:01;;;;;;;15.25;6.90;;;-1.60;99.90;;;;;;4968366;28;20038;-80
2020/12/03 06:39:39;;;;;;;23.52;8.63;;;-1.60;99.90;;;;;;4974554;28;20069;-79
2020/12/03 06:42:11;;;;;;;20.17;7.53;;;-1.70;99.90;;;;;;4980941;28;20031;-80
2020/12/03 06:44:39;;;;;;;22.83;8.68;;;-1.60;99.90;;;;;;5001406;28;20487;-79
2020/12/03 06:47:24;;;;;;;23.63;8.50;;;-1.60;99.90;;;;;;5009645;28;20117;-80
2020/12/03 06:50:08;;;;;;;18.20;7.20;;;-1.60;99.90;;;;;;4992345;28;20412;-81
2020/12/03 06:52:59;;;;;;;26.10;9.20;;;-1.70;99.90;;;;;;4973666;28;20611;-79
2020/12/03 06:55:55;;;;;;;22.38;8.32;;;-1.70;99.90;;;;;;4999545;28;20027;-81
2020/12/03 06:58:42;;;;;;;25.42;9.40;;;-1.70;99.90;;;;;;4986258;28;20027;-80
2020/12/03 07:01:26;;;;;;;22.55;8.95;;;-1.60;99.90;;;;;;4990712;28;20077;-79
2020/12/03 07:04:20;;;;;;;20.23;8.57;;;-1.70;99.90;;;;;;4985815;28;20034;-80
2020/12/03 07:06:55;;;;;;;24.45;8.48;;;-1.60;99.90;;;;;;4995051;28;20036;-80
2020/12/03 07:09:48;;;;;;;20.33;8.67;;;-1.60;99.90;;;;;;4991827;28;20034;-80
2020/12/03 07:12:45;;;;;;;20.52;8.93;;;-1.50;99.90;;;;;;4981383;28;20026;-81
2020/12/03 07:15:29;;;;;;;19.45;8.25;;;-1.50;99.90;;;;;;4986950;28;20061;-82
2020/12/03 07:18:16;;;;;;;22.95;8.85;;;-1.60;99.90;;;;;;4983535;28;20092;-81
2020/12/03 07:21:16;;;;;;;18.55;8.73;;;-1.60;99.90;;;;;;4992692;28;20584;-80
2020/12/03 07:23:50;;;;;;;24.80;9.48;;;-1.60;99.90;;;;;;4986980;28;20133;-81
2020/12/03 07:26:51;;;;;;;22.00;9.05;;;-1.60;99.90;;;;;;5010812;28;20514;-82
2020/12/03 07:29:25;;;;;;;17.58;7.88;;;-1.50;99.90;;;;;;4980660;28;20042;-80
2020/12/03 07:31:57;;;;;;;22.63;9.45;;;-1.50;99.90;;;;;;4991461;28;20034;-79
2020/12/03 07:34:36;;;;;;;21.85;9.15;;;-1.50;99.90;;;;;;4991766;28;20109;-79
2020/12/03 07:37:27;;;;;;;20.95;8.77;;;-1.50;99.90;;;;;;4989857;28;20089;-81
2020/12/03 07:39:53;;;;;;;19.30;8.05;;;-1.50;99.90;;;;;;4983486;28;20038;-79
2020/12/03 07:42:21;;;;;;;19.08;7.60;;;-1.50;99.90;;;;;;4986766;28;20026;-81
2020/12/03 07:44:55;;;;;;;18.00;8.63;;;-1.50;99.90;;;;;;4983192;28;20114;-82
2020/12/03 07:47:36;;;;;;;21.23;8.55;;;-1.50;99.90;;;;;;4992024;28;20038;-82
2020/12/03 07:50:29;;;;;;;19.75;8.77;;;-1.40;99.90;;;;;;4965208;28;20027;-82
2020/12/03 07:53:14;;;;;;;26.08;9.02;;;-1.40;99.90;;;;;;4979223;28;20041;-80
2020/12/03 07:55:40;;;;;;;23.50;9.35;;;-1.40;99.90;;;;;;4990891;28;20033;-82
2020/12/03 07:58:28;;;;;;;17.25;7.65;;;-1.40;99.90;;;;;;4988632;28;20058;-80
2020/12/03 08:00:53;;;;;;;20.33;8.02;;;-1.40;99.90;;;;;;4980120;28;20051;-81
2020/12/03 08:03:49;;;;;;;21.35;8.65;;;-1.40;99.90;;;;;;4991316;28;20508;-82
2020/12/03 08:06:21;;;;;;;19.83;8.70;;;-1.40;99.90;;;;;;4979101;28;20623;-80
2020/12/03 08:08:59;;;;;;;19.35;8.75;;;-1.40;99.90;;;;;;4985983;28;20047;-82
2020/12/03 08:11:45;;;;;;;27.67;9.68;;;-1.40;99.90;;;;;;4990952;28;20366;-82
2020/12/03 08:15:06;;;;;;;17.83;8.27;;;-1.30;99.90;;;;;;4991002;28;20022;-81
2020/12/03 08:17:35;;;;;;;24.92;9.60;;;-1.30;99.90;;;;;;4972690;28;20125;-81
2020/12/03 08:20:04;;;;;;;18.95;7.95;;;-1.30;99.90;;;;;;4964089;28;20042;-81
2020/12/03 08:23:07;;;;;;;23.75;9.77;;;-1.30;99.90;;;;;;4992448;28;20042;-82
2020/12/03 08:25:32;;;;;;;21.10;9.52;;;-1.20;99.90;;;;;;5008089;28;20053;-80
2020/12/03 08:28:05;;;;;;;25.88;9.88;;;-1.20;99.90;;;;;;4980551;28;20121;-81
2020/12/03 08:30:50;;;;;;;25.27;9.93;;;-1.10;99.90;;;;;;4979317;28;20540;-81
2020/12/03 08:33:27;;;;;;;23.00;9.60;;;-1.20;99.90;;;;;;4984784;28;20023;-80
2020/12/03 08:36:05;;;;;;;21.73;9.63;;;-1.10;99.90;;;;;;4988260;28;20118;-80
2020/12/03 08:38:34;;;;;;;22.25;9.02;;;-1.20;99.90;;;;;;4975882;28;20045;-80
2020/12/03 08:41:04;;;;;;;27.25;10.05;;;-1.20;99.90;;;;;;4982187;28;20038;-80
2020/12/03 08:43:39;;;;;;;23.75;9.90;;;-1.20;99.90;;;;;;4984520;28;20041;-80
2020/12/03 08:46:13;;;;;;;27.00;10.47;;;-1.30;99.90;;;;;;4982942;28;20113;-81
2020/12/03 08:48:40;;;;;;;24.02;9.23;;;-1.30;99.90;;;;;;4996422;28;20465;-81
2020/12/03 08:51:10;;;;;;;23.33;9.10;;;-1.30;99.90;;;;;;4964096;28;20042;-81
2020/12/03 08:53:37;;;;;;;25.58;9.75;;;-1.40;99.90;;;;;;4966421;28;20109;-81
2020/12/03 08:56:15;;;;;;;23.42;10.10;;;-1.40;99.90;;;;;;4997772;28;20102;-80
2020/12/03 08:59:12;;;;;;;22.08;8.60;;;-1.40;99.90;;;;;;5012543;28;20034;-81
2020/12/03 09:01:45;;;;;;;22.52;9.40;;;-1.40;99.90;;;;;;4995938;28;20052;-81
2020/12/03 09:04:11;;;;;;;26.35;9.82;;;-1.40;99.90;;;;;;4966171;28;20030;-81
2020/12/03 09:06:48;;;;;;;23.63;9.75;;;-1.40;99.90;;;;;;4982204;28;20038;-81
2020/12/03 09:09:22;;;;;;;27.70;10.43;;;-1.40;99.90;;;;;;4951717;28;20045;-81
2020/12/03 09:11:50;;;;;;;25.88;9.63;;;-1.40;99.90;;;;;;4966795;28;20053;-81
2020/12/03 09:14:17;;;;;;;25.30;11.05;;;-1.40;99.90;;;;;;4994588;28;20046;-82
2020/12/03 09:16:46;;;;;;;27.17;10.85;;;-1.40;99.90;;;;;;4983330;28;20125;-82
2020/12/03 09:19:22;;;;;;;27.27;10.55;;;-1.40;99.90;;;;;;4959997;28;20103;-82
2020/12/03 09:21:49;;;;;;;26.25;11.10;;;-1.40;99.90;;;;;;4989930;28;20544;-82
2020/12/03 09:24:18;;;;;;;24.92;10.15;;;-1.40;99.90;;;;;;4992807;28;20022;-82
2020/12/03 09:26:47;;;;;;;20.40;9.05;;;-1.40;99.90;;;;;;4991556;28;20027;-82
2020/12/03 09:29:12;;;;;;;27.70;10.15;;;-1.30;99.90;;;;;;4978538;28;20037;-81
2020/12/03 09:31:38;;;;;;;27.65;10.35;;;-1.30;99.90;;;;;;4976895;28;20054;-79
2020/12/03 09:34:07;;;;;;;25.65;10.00;;;-1.30;99.90;;;;;;4959513;28;20022;-82
2020/12/03 09:36:33;;;;;;;25.98;10.43;;;-1.20;99.90;;;;;;4976916;28;20038;-80
2020/12/03 09:39:00;;;;;;;26.77;10.68;;;-1.20;99.90;;;;;;4944581;28;20034;-80
2020/12/03 09:41:26;;;;;;;21.80;9.43;;;-1.20;99.90;;;;;;4992237;28;20030;-82
2020/12/03 09:43:55;;;;;;;22.85;9.05;;;-1.20;99.90;;;;;;4971571;28;20031;-83
2020/12/03 09:46:28;;;;;;;24.40;10.20;;;-1.20;99.90;;;;;;4975004;28;20065;-79
2020/12/03 09:48:55;;;;;;;19.83;8.75;;;-1.20;99.90;;;;;;4976197;28;20097;-81
2020/12/03 09:51:24;;;;;;;25.55;9.80;;;-1.20;99.90;;;;;;4973777;28;20026;-80
2020/12/03 09:53:51;;;;;;;23.25;9.57;;;-1.10;99.90;;;;;;4972067;28;20069;-81
2020/12/03 09:56:20;;;;;;;21.85;8.88;;;-1.10;99.90;;;;;;4964113;28;20127;-78
2020/12/03 09:58:56;;;;;;;20.58;9.48;;;-1.10;99.90;;;;;;4971931;28;20062;-82
2020/12/03 10:01:46;;;;;;;26.35;10.20;;;-1.10;99.90;;;;;;4951204;28;20042;-79
2020/12/03 10:05:00;;;;;;;22.98;9.68;;;-1.10;99.90;;;;;;5009275;28;20506;-80
2020/12/03 10:07:29;;;;;;;26.00;10.30;;;-1.00;99.90;;;;;;4992057;28;20027;-81
2020/12/03 10:10:12;;;;;;;22.20;9.07;;;-1.00;99.90;;;;;;5013164;28;20034;-78
2020/12/03 10:12:57;;;;;;;20.00;8.20;;;-0.90;99.90;;;;;;4996490;28;20030;-80
2020/12/03 10:15:53;;;;;;;19.58;7.97;;;-0.90;99.90;;;;;;4997010;28;20090;-81
2020/12/03 10:18:23;;;;;;;20.48;8.35;;;-0.80;99.90;;;;;;4980234;28;20034;-79
2020/12/03 10:20:52;;;;;;;22.05;8.18;;;-0.80;99.90;;;;;;4992265;28;20040;-81
2020/12/03 10:23:45;;;;;;;24.35;8.65;;;-0.80;99.90;;;;;;4992756;28;20031;-81
2020/12/03 10:26:31;;;;;;;18.00;8.05;;;-0.80;99.90;;;;;;4998490;28;20033;-82
2020/12/03 10:29:15;;;;;;;20.67;6.88;;;-0.70;99.90;;;;;;4997304;28;20050;-81
2020/12/03 10:31:46;;;;;;;24.42;8.05;;;-0.80;99.90;;;;;;4993859;28;20566;-81
2020/12/03 10:34:13;;;;;;;17.98;7.57;;;-0.70;99.90;;;;;;4975716;28;20377;-82
2020/12/03 10:36:46;;;;;;;22.42;7.78;;;-0.80;99.90;;;;;;4976756;28;20100;-82
2020/12/03 10:39:15;;;;;;;20.25;8.00;;;-0.80;99.90;;;;;;4993880;28;20058;-81
2020/12/03 10:41:42;;;;;;;21.48;7.55;;;-0.70;99.90;;;;;;4958789;28;20041;-80
2020/12/03 10:44:15;;;;;;;17.80;7.82;;;-0.70;99.90;;;;;;4991429;28;20053;-81
2020/12/03 10:46:47;;;;;;;19.27;7.88;;;-0.70;99.90;;;;;;5002039;28;20034;-80
2020/12/03 10:49:16;;;;;;;14.90;7.07;;;-0.60;99.90;;;;;;4992239;28;20485;-81
2020/12/03 10:51:43;;;;;;;20.95;8.18;;;-0.60;99.90;;;;;;4993466;28;20023;-78
2020/12/03 10:54:09;;;;;;;16.52;7.30;;;-0.60;99.90;;;;;;4989351;28;20026;-80
2020/12/03 10:56:37;;;;;;;20.10;7.40;;;-0.50;99.90;;;;;;5007951;28;20034;-81
2020/12/03 10:59:10;;;;;;;19.73;8.68;;;-0.50;99.90;;;;;;4965600;28;20045;-79
2020/12/03 11:01:37;;;;;;;20.35;8.05;;;-0.40;99.90;;;;;;4990348;28;20547;-80
2020/12/03 11:04:10;;;;;;;19.17;8.13;;;-0.40;99.90;;;;;;4954106;28;20039;-81
2020/12/03 11:06:36;;;;;;;22.75;8.45;;;-0.40;99.90;;;;;;4934794;28;20401;-80
2020/12/03 11:09:04;;;;;;;15.10;6.85;;;-0.40;99.90;;;;;;4936456;28;20035;-79
2020/12/03 11:11:33;;;;;;;20.25;7.68;;;-0.40;99.90;;;;;;4966512;28;20034;-80
2020/12/03 11:13:59;;;;;;;21.50;8.57;;;-0.50;99.90;;;;;;4971711;28;20632;-79
2020/12/03 11:16:31;;;;;;;20.75;8.40;;;-0.50;99.90;;;;;;5007573;28;20038;-78
2020/12/03 11:18:59;;;;;;;19.27;8.20;;;-0.50;99.90;;;;;;4990775;28;20369;-79
2020/12/03 11:21:30;;;;;;;20.88;8.10;;;-0.60;99.90;;;;;;4988620;28;20583;-80
2020/12/03 11:24:28;;;;;;;23.80;7.75;;;-0.60;99.90;;;;;;4992733;28;20054;-80
2020/12/03 11:26:56;;;;;;;17.92;7.22;;;-0.70;99.90;;;;;;4986588;28;20048;-80
2020/12/03 11:29:22;;;;;;;19.05;7.07;;;-0.60;99.90;;;;;;4972223;28;20507;-80
2020/12/03 11:31:48;;;;;;;20.35;8.13;;;-0.60;99.90;;;;;;4989586;28;20046;-80
2020/12/03 11:34:14;;;;;;;18.50;8.00;;;-0.60;99.90;;;;;;5003729;28;20073;-80
2020/12/03 11:36:45;;;;;;;20.13;8.02;;;-0.60;99.90;;;;;;4991312;28;20528;-80
2020/12/03 11:39:11;;;;;;;24.27;7.90;;;-0.70;99.90;;;;;;4973992;28;20088;-80
2020/12/03 11:49:04;;;;;;;19.73;7.95;;;-0.60;99.90;;;;;;4991172;28;20652;-79
2020/12/03 11:51:34;;;;;;;25.05;9.23;;;-0.60;99.90;;;;;;4984333;28;20033;-79
2020/12/03 11:54:08;;;;;;;18.92;8.70;;;-0.60;99.90;;;;;;4991216;28;20034;-80
2020/12/03 11:56:36;;;;;;;22.08;7.82;;;-0.60;99.90;;;;;;4991143;28;20420;-80
2020/12/03 11:59:18;;;;;;;21.80;8.65;;;-0.60;99.90;;;;;;4991173;28;20132;-79
2020/12/03 12:02:13;;;;;;;20.67;8.00;;;-0.50;99.90;;;;;;4986279;28;20026;-80
2020/12/03 12:04:52;;;;;;;20.40;8.00;;;-0.50;99.90;;;;;;4974000;28;20125;-78
2020/12/03 12:12:17;;;;;;;21.90;8.30;;;-0.40;99.90;;;;;;4987823;28;20034;-79
2020/12/03 12:14:43;;;;;;;19.10;7.38;;;-0.40;99.90;;;;;;4989314;28;20022;-78
2020/12/03 12:17:09;;;;;;;17.73;8.15;;;-0.40;99.90;;;;;;4988979;28;20046;-78
2020/12/03 12:19:36;;;;;;;19.42;8.10;;;-0.30;99.90;;;;;;4986540;28;20038;-79
2020/12/03 12:22:04;;;;;;;22.92;7.88;;;-0.40;99.90;;;;;;4986420;28;20046;-78
2020/12/03 12:24:31;;;;;;;16.10;7.28;;;-0.40;99.90;;;;;;4983783;28;20030;-79
2020/12/03 12:26:56;;;;;;;25.52;9.00;;;-0.40;99.90;;;;;;4991472;28;20038;-78
2020/12/03 12:29:22;;;;;;;19.55;8.05;;;-0.40;99.90;;;;;;5005722;28;20045;-78
2020/12/03 12:31:48;;;;;;;21.58;8.38;;;-0.50;99.90;;;;;;4993931;28;20026;-78
2020/12/03 12:34:13;;;;;;;20.90;7.45;;;-0.50;99.90;;;;;;4987563;28;20022;-78
2020/12/03 12:36:39;;;;;;;21.55;8.82;;;-0.60;99.90;;;;;;4987496;28;20035;-78
2020/12/03 12:39:05;;;;;;;27.77;9.60;;;-0.60;99.90;;;;;;4983902;28;20092;-78
2020/12/03 12:41:31;;;;;;;21.77;8.18;;;-0.60;99.90;;;;;;4986109;28;20106;-78
2020/12/03 12:43:57;;;;;;;17.88;8.02;;;-0.70;99.90;;;;;;4985252;28;20405;-79
2020/12/03 12:46:23;;;;;;;21.52;7.78;;;-0.70;99.90;;;;;;4986111;28;20449;-79
2020/12/03 12:48:50;;;;;;;19.98;7.95;;;-0.70;99.90;;;;;;4986729;28;20117;-80
2020/12/03 12:51:16;;;;;;;21.10;8.40;;;-0.60;99.90;;;;;;4988736;28;20167;-77
2020/12/03 12:53:42;;;;;;;19.73;8.20;;;-0.60;99.90;;;;;;4990944;28;20435;-78
2020/12/03 12:56:12;;;;;;;20.73;9.23;;;-0.60;99.90;;;;;;4991875;28;20026;-78
2020/12/03 12:58:38;;;;;;;21.60;8.57;;;-0.60;99.90;;;;;;4990349;28;20407;-78
2020/12/03 13:01:05;;;;;;;21.50;9.10;;;-0.50;99.90;;;;;;4990665;28;20443;-78
2020/12/03 13:03:31;;;;;;;21.05;8.07;;;-0.50;99.90;;;;;;4993869;28;20129;-79
2020/12/03 13:05:57;;;;;;;22.08;8.82;;;-0.50;99.90;;;;;;4995156;28;20073;-78
2020/12/03 13:08:24;;;;;;;19.80;8.50;;;-0.50;99.90;;;;;;4995236;28;20495;-79
2020/12/03 13:10:50;;;;;;;21.88;9.15;;;-0.50;99.90;;;;;;4993621;28;20034;-78
2020/12/03 13:13:16;;;;;;;21.73;9.20;;;-0.50;99.90;;;;;;4995100;28;20048;-78